Aviation Digital Data Service (ADDS)

Output produced by METARs form (1731 UTC 05 July 2015)
found at http://www.aviationweather.gov/adds/metars/
 
KLNS 051653Z 00000KT 10SM BKN032 25/18 A3016 RMK AO2 SLP210 T02500178
KLNS 051720Z 0518/0618 18005KT P6SM BKN035 BKN250 
     FM060600 12002KT 4SM BR BKN250 
     FM061500 13004KT 6SM HZ VCSH SCT020 OVC050